createdAt,value
2022-10-05T00:00:44.175Z,8.45
2022-10-05T00:03:11.963Z,13.27
2022-10-05T00:05:39.479Z,8.63
2022-10-05T00:08:22.945Z,6.95
2022-10-05T00:10:50.564Z,8.68
2022-10-05T00:13:20.947Z,8.35
2022-10-05T00:15:48.741Z,9.88
2022-10-05T00:18:20.643Z,7.07
2022-10-05T00:20:48.601Z,8.40
2022-10-05T00:23:24.958Z,7.38
2022-10-05T00:25:51.526Z,8.27
2022-10-05T00:28:27.664Z,6.15
2022-10-05T00:31:00.707Z,6.38
2022-10-05T00:33:28.175Z,5.63
2022-10-05T00:35:55.351Z,6.00
2022-10-05T00:38:22.328Z,7.05
2022-10-05T00:41:13.941Z,6.10
2022-10-05T00:43:52.682Z,6.18
2022-10-05T00:46:41.792Z,6.03
2022-10-05T00:49:14.313Z,8.13
2022-10-05T00:51:43.801Z,5.90
2022-10-05T00:54:19.150Z,13.55
2022-10-05T00:57:07.280Z,7.03
2022-10-05T01:00:06.208Z,7.28
2022-10-05T01:02:59.142Z,8.25
2022-10-05T01:05:53.745Z,6.85
2022-10-05T01:08:47.985Z,9.00
2022-10-05T01:11:25.192Z,6.80
2022-10-05T01:14:19.325Z,7.00
2022-10-05T01:17:36.068Z,7.10
2022-10-05T01:20:23.597Z,11.27
2022-10-05T01:23:27.318Z,6.65
2022-10-05T01:26:06.332Z,6.63
2022-10-05T01:28:39.110Z,6.57
2022-10-05T01:31:19.541Z,8.35
2022-10-05T01:33:55.842Z,6.40
2022-10-05T01:36:40.584Z,8.25
2022-10-05T01:39:25.623Z,9.88
2022-10-05T01:42:16.885Z,6.55
2022-10-05T01:44:54.565Z,7.72
2022-10-05T01:47:50.087Z,9.73
2022-10-05T01:50:28.490Z,6.10
2022-10-05T01:53:12.876Z,6.97
2022-10-05T01:55:49.038Z,7.45
2022-10-05T01:58:30.027Z,6.88
2022-10-05T02:01:18.331Z,5.85
2022-10-05T02:03:53.480Z,5.82
2022-10-05T02:06:25.033Z,6.03
2022-10-05T02:09:02.526Z,7.40
2022-10-05T02:11:29.252Z,6.15
2022-10-05T02:14:03.002Z,6.72
2022-10-05T02:16:36.335Z,6.57
2022-10-05T02:19:11.604Z,8.32
2022-10-05T02:21:39.057Z,5.88
2022-10-05T02:24:18.495Z,5.72
2022-10-05T02:26:46.742Z,5.88
2022-10-05T02:29:16.539Z,10.48
2022-10-05T02:31:48.861Z,8.13
2022-10-05T02:34:26.360Z,8.07
2022-10-05T02:37:15.819Z,9.05
2022-10-05T02:40:04.743Z,14.15
2022-10-05T02:42:42.490Z,11.95
2022-10-05T02:45:26.485Z,6.97
2022-10-05T02:48:17.739Z,10.63
2022-10-05T02:50:53.665Z,8.80
2022-10-05T02:53:38.893Z,5.25
2022-10-05T02:56:28.570Z,5.82
2022-10-05T02:59:11.142Z,6.82
2022-10-05T03:01:49.307Z,6.55
2022-10-05T03:04:51.021Z,5.78
2022-10-05T03:07:37.434Z,5.47
2022-10-05T03:10:12.476Z,6.55
2022-10-05T03:13:19.842Z,10.32
2022-10-05T03:16:14.021Z,6.88
2022-10-05T03:19:17.967Z,11.05
2022-10-05T03:21:58.985Z,7.65
2022-10-05T03:25:02.814Z,10.35
2022-10-05T03:27:47.632Z,7.80
2022-10-05T03:30:21.936Z,9.90
2022-10-05T03:33:19.433Z,13.55
2022-10-05T03:35:53.259Z,16.38
2022-10-05T03:38:44.087Z,9.00
2022-10-05T03:41:31.552Z,10.60
2022-10-05T03:44:31.602Z,11.63
2022-10-05T03:47:19.358Z,10.00
2022-10-05T03:50:04.463Z,9.50
2022-10-05T03:52:48.332Z,10.45
2022-10-05T03:55:26.661Z,7.78
2022-10-05T03:57:58.526Z,11.75
2022-10-05T04:00:28.049Z,10.05
2022-10-05T04:03:09.078Z,9.25
2022-10-05T04:05:50.513Z,7.50
2022-10-05T04:08:34.324Z,7.45
2022-10-05T04:11:06.215Z,9.18
2022-10-05T04:13:59.442Z,6.95
2022-10-05T04:16:31.088Z,7.65
2022-10-05T04:19:05.864Z,8.90
2022-10-05T04:21:55.181Z,9.48
2022-10-05T04:24:35.058Z,7.83
2022-10-05T04:27:09.377Z,7.13
2022-10-05T04:29:44.798Z,6.82
2022-10-05T04:32:36.952Z,7.10
2022-10-05T04:35:18.576Z,6.57
2022-10-05T04:38:05.282Z,8.20
2022-10-05T04:40:46.989Z,6.20
2022-10-05T04:43:24.507Z,5.70
2022-10-05T04:46:11.886Z,5.88
2022-10-05T04:49:09.404Z,6.78
2022-10-05T04:52:00.706Z,8.48
2022-10-05T04:54:44.492Z,6.78
2022-10-05T04:57:16.897Z,6.00
2022-10-05T05:00:05.672Z,6.10
2022-10-05T05:02:44.702Z,7.43
2022-10-05T05:05:27.219Z,7.63
2022-10-05T05:07:53.613Z,6.28
2022-10-05T05:10:40.735Z,7.45
2022-10-05T05:13:13.118Z,6.60
2022-10-05T05:16:02.093Z,5.80
2022-10-05T05:18:51.962Z,6.10
2022-10-05T05:21:35.975Z,6.45
2022-10-05T05:24:30.105Z,6.75
2022-10-05T05:27:11.016Z,6.00
2022-10-05T05:29:52.030Z,5.68
2022-10-05T05:32:33.398Z,7.72
2022-10-05T05:35:18.104Z,7.07
2022-10-05T05:37:58.142Z,5.93
2022-10-05T05:40:30.144Z,5.38
2022-10-05T05:42:56.675Z,10.43
2022-10-05T05:45:42.071Z,8.10
2022-10-05T05:48:42.694Z,8.20
2022-10-05T05:51:19.877Z,6.70
2022-10-05T05:53:50.741Z,4.95
2022-10-05T05:56:22.153Z,4.85
2022-10-05T05:59:00.868Z,5.72
2022-10-05T06:01:37.693Z,5.82
2022-10-05T06:04:15.081Z,5.20
2022-10-05T06:06:48.760Z,6.45
2022-10-05T06:09:24.551Z,9.73
2022-10-05T06:12:00.809Z,14.52
2022-10-05T06:15:00.543Z,11.25
2022-10-05T06:17:32.074Z,10.48
2022-10-05T06:20:04.991Z,13.73
2022-10-05T06:22:38.790Z,14.15
2022-10-05T06:25:12.262Z,12.88
2022-10-05T06:27:58.357Z,7.63
2022-10-05T06:30:28.615Z,8.57
2022-10-05T06:33:01.030Z,9.50
2022-10-05T06:35:56.651Z,9.80
2022-10-05T06:38:38.163Z,8.20
2022-10-05T06:41:32.467Z,6.95
2022-10-05T06:44:06.138Z,6.38
2022-10-05T06:46:43.938Z,8.18
2022-10-05T06:49:34.389Z,5.82
2022-10-05T06:52:15.986Z,3.83
2022-10-05T06:54:43.059Z,3.85
2022-10-05T06:57:44.556Z,3.38
2022-10-05T07:00:17.023Z,4.30
2022-10-05T07:03:25.582Z,3.72
2022-10-05T07:06:20.152Z,4.43
2022-10-05T07:08:49.492Z,4.25
2022-10-05T07:11:34.656Z,6.18
2022-10-05T07:14:39.372Z,6.40
2022-10-05T07:17:22.287Z,3.63
2022-10-05T07:20:14.153Z,3.50
2022-10-05T07:23:14.239Z,3.92
2022-10-05T07:25:46.703Z,3.65
2022-10-05T07:28:33.464Z,3.97
2022-10-05T07:31:16.046Z,2.63
2022-10-05T07:34:06.717Z,3.05
2022-10-05T07:37:09.469Z,2.40
2022-10-05T07:40:06.287Z,1.83
2022-10-05T07:42:50.894Z,2.10
2022-10-05T07:45:29.085Z,2.38
2022-10-05T07:48:06.867Z,3.70
2022-10-05T07:51:04.110Z,3.50
2022-10-05T07:53:38.923Z,2.20
2022-10-05T07:58:47.414Z,2.42
2022-10-05T08:01:36.608Z,3.08
2022-10-05T08:06:56.606Z,2.08
2022-10-05T08:09:35.781Z,2.22
2022-10-05T08:14:56.970Z,3.78
2022-10-05T08:17:37.903Z,4.20
2022-10-05T08:20:22.013Z,3.25
2022-10-05T08:22:57.938Z,2.00
2022-10-05T08:26:09.073Z,2.45
2022-10-05T08:28:38.155Z,2.20
2022-10-05T08:31:16.734Z,3.50
2022-10-05T08:34:20.097Z,4.88
2022-10-05T08:37:07.051Z,4.88
2022-10-05T08:39:44.671Z,1.58
2022-10-05T08:42:44.878Z,3.00
2022-10-05T08:45:48.666Z,1.23
2022-10-05T08:48:24.267Z,1.38
2022-10-05T08:51:31.803Z,2.17
2022-10-05T08:54:16.678Z,1.10
2022-10-05T08:56:46.180Z,4.45
2022-10-05T09:00:02.852Z,3.58
2022-10-05T09:03:11.545Z,1.17
2022-10-05T09:08:10.258Z,3.90
2022-10-05T09:11:18.191Z,0.88
2022-10-05T09:14:02.952Z,1.13
2022-10-05T09:16:49.462Z,2.28
2022-10-05T09:19:53.145Z,2.42
2022-10-05T09:22:38.345Z,1.30
2022-10-05T09:25:46.017Z,1.55
2022-10-05T09:28:22.953Z,1.58
2022-10-05T09:30:56.562Z,1.70
2022-10-05T09:33:53.948Z,3.20
2022-10-05T09:36:47.911Z,1.90
2022-10-05T09:39:35.623Z,3.35
2022-10-05T09:42:26.849Z,1.40
2022-10-05T09:45:09.909Z,3.00
2022-10-05T09:48:11.539Z,2.92
2022-10-05T09:50:37.972Z,4.25
2022-10-05T09:53:10.096Z,1.10
2022-10-05T09:55:55.071Z,2.03
2022-10-05T09:58:57.645Z,2.17
2022-10-05T10:01:44.638Z,1.20
2022-10-05T10:04:26.687Z,3.63
2022-10-05T10:07:11.942Z,2.72
2022-10-05T10:09:49.243Z,3.08
2022-10-05T10:12:24.438Z,8.02
2022-10-05T10:15:01.926Z,3.53
2022-10-05T10:18:06.238Z,3.92
2022-10-05T10:20:56.185Z,5.72
2022-10-05T10:23:27.300Z,1.40
2022-10-05T10:26:05.927Z,3.10
2022-10-05T10:28:46.906Z,3.05
2022-10-05T10:31:28.621Z,0.80
2022-10-05T10:34:16.351Z,2.42
2022-10-05T10:37:07.188Z,5.25
2022-10-05T10:39:45.154Z,2.97
2022-10-05T10:43:03.805Z,2.10
2022-10-05T10:45:57.551Z,1.67
2022-10-05T10:48:46.200Z,2.08
2022-10-05T10:51:22.002Z,1.65
2022-10-05T10:53:56.054Z,2.58
2022-10-05T10:56:50.907Z,1.08
2022-10-05T10:59:42.371Z,0.80
2022-10-05T11:02:43.059Z,1.48
2022-10-05T11:05:28.815Z,1.35
2022-10-05T11:08:16.858Z,2.45
2022-10-05T11:11:22.130Z,1.02
2022-10-05T11:14:21.037Z,2.08
2022-10-05T11:20:10.524Z,1.13
2022-10-05T11:22:50.396Z,2.38
2022-10-05T11:25:35.150Z,1.10
2022-10-05T11:28:28.622Z,3.00
2022-10-05T11:31:25.558Z,0.95
2022-10-05T11:34:20.617Z,1.60
2022-10-05T11:36:53.830Z,1.13
2022-10-05T11:39:36.935Z,2.60
2022-10-05T11:42:51.244Z,4.10
2022-10-05T11:45:21.778Z,2.70
2022-10-05T11:48:10.629Z,0.95
2022-10-05T11:50:57.209Z,1.33
2022-10-05T11:53:26.690Z,2.05
2022-10-05T11:56:12.642Z,1.25
2022-10-05T11:58:47.198Z,1.52
2022-10-05T12:01:30.847Z,2.38
2022-10-05T12:04:25.795Z,2.35
2022-10-05T12:07:02.869Z,2.42
2022-10-05T12:10:05.451Z,3.13
2022-10-05T12:12:45.246Z,1.23
2022-10-05T12:15:23.933Z,3.05
2022-10-05T12:18:13.683Z,1.52
2022-10-05T12:21:14.805Z,2.20
2022-10-05T12:23:54.782Z,1.00
2022-10-05T12:26:37.969Z,1.40
2022-10-05T12:29:33.425Z,1.13
2022-10-05T12:32:13.394Z,1.15
2022-10-05T12:35:03.287Z,1.83
2022-10-05T12:37:46.547Z,1.17
2022-10-05T12:40:19.013Z,1.58
2022-10-05T12:42:57.852Z,2.45
2022-10-05T12:45:47.425Z,2.53
2022-10-05T12:48:22.892Z,1.60
2022-10-05T12:51:04.143Z,2.13
2022-10-05T12:53:48.394Z,1.35
2022-10-05T12:56:23.680Z,3.15
2022-10-05T12:59:19.272Z,1.75
2022-10-05T13:02:05.812Z,1.00
2022-10-05T13:04:49.412Z,2.90
2022-10-05T13:07:41.162Z,1.92
2022-10-05T13:10:24.685Z,1.10
2022-10-05T13:13:06.162Z,1.23
2022-10-05T13:16:05.503Z,1.98
2022-10-05T13:21:45.841Z,2.38
2022-10-05T13:24:22.170Z,1.77
2022-10-05T13:26:55.062Z,3.13
2022-10-05T13:29:29.202Z,2.83
2022-10-05T13:32:00.443Z,2.47
2022-10-05T13:34:40.179Z,4.38
2022-10-05T13:37:17.409Z,1.17
2022-10-05T13:40:00.865Z,3.28
2022-10-05T13:42:42.595Z,1.80
2022-10-05T13:45:27.244Z,1.33
2022-10-05T13:48:11.324Z,2.15
2022-10-05T13:51:07.558Z,7.00
2022-10-05T13:53:41.923Z,3.15
2022-10-05T13:56:36.195Z,3.10
2022-10-05T13:59:11.914Z,8.13
2022-10-05T14:01:49.203Z,5.80
2022-10-05T14:04:21.402Z,3.22
2022-10-05T14:06:49.304Z,2.80
2022-10-05T14:09:22.145Z,4.75
2022-10-05T14:12:11.877Z,2.10
2022-10-05T14:17:29.240Z,4.75
2022-10-05T14:20:00.951Z,4.43
2022-10-05T14:22:27.878Z,4.60
2022-10-05T14:25:02.899Z,3.92
2022-10-05T14:27:34.901Z,5.15
2022-10-05T14:30:18.559Z,7.85
2022-10-05T14:33:04.879Z,4.82
2022-10-05T14:35:49.111Z,4.72
2022-10-05T14:38:29.410Z,3.70
2022-10-05T14:41:17.380Z,3.50
2022-10-05T14:44:13.419Z,4.22
2022-10-05T14:46:53.012Z,5.10
2022-10-05T14:49:25.733Z,4.55
2022-10-05T14:51:53.873Z,4.72
2022-10-05T14:54:42.277Z,6.65
2022-10-05T14:57:18.110Z,3.20
2022-10-05T15:00:04.125Z,3.45
2022-10-05T15:03:01.273Z,5.53
2022-10-05T15:05:52.384Z,2.72
2022-10-05T15:08:41.466Z,4.05
2022-10-05T15:11:16.675Z,4.63
2022-10-05T15:13:48.566Z,4.15
2022-10-05T15:16:19.791Z,3.05
2022-10-05T15:19:13.813Z,4.93
2022-10-05T15:21:51.373Z,4.10
2022-10-05T15:24:22.190Z,3.45
2022-10-05T15:26:58.250Z,3.05
2022-10-05T15:30:09.704Z,4.97
2022-10-05T15:32:44.271Z,4.35
2022-10-05T15:35:20.288Z,4.07
2022-10-05T15:37:54.891Z,4.25
2022-10-05T15:40:59.522Z,3.10
2022-10-05T15:43:58.838Z,6.18
2022-10-05T15:46:56.754Z,4.25
2022-10-05T15:49:44.667Z,4.30
2022-10-05T15:52:29.885Z,4.40
2022-10-05T15:55:25.416Z,4.00
2022-10-05T15:57:57.540Z,4.13
2022-10-05T16:00:26.360Z,4.97
2022-10-05T16:03:11.914Z,6.22
2022-10-05T16:05:56.913Z,4.05
2022-10-05T16:09:00.333Z,4.53
2022-10-05T16:11:47.697Z,4.18
2022-10-05T16:14:33.357Z,3.83
2022-10-05T16:17:15.622Z,6.63
2022-10-05T16:20:17.726Z,4.25
2022-10-05T16:23:21.434Z,4.20
2022-10-05T16:25:53.970Z,4.80
2022-10-05T16:28:35.930Z,5.45
2022-10-05T16:31:11.413Z,6.28
2022-10-05T16:34:06.532Z,3.60
2022-10-05T16:36:44.455Z,3.92
2022-10-05T16:39:41.479Z,5.45
2022-10-05T16:42:26.636Z,5.25
2022-10-05T16:45:06.863Z,4.55
2022-10-05T16:48:15.167Z,8.55
2022-10-05T16:51:20.065Z,5.97
2022-10-05T16:53:59.645Z,5.72
2022-10-05T16:56:37.556Z,7.32
2022-10-05T16:59:33.118Z,6.53
2022-10-05T17:02:00.714Z,5.80
2022-10-05T17:04:57.972Z,5.25
2022-10-05T17:07:34.687Z,4.72
2022-10-05T17:10:30.597Z,4.88
2022-10-05T17:13:14.160Z,5.72
2022-10-05T17:16:22.948Z,4.18
2022-10-05T17:19:34.255Z,4.25
2022-10-05T17:22:12.610Z,6.65
2022-10-05T17:25:04.735Z,6.00
2022-10-05T17:27:55.402Z,8.68
2022-10-05T17:30:38.300Z,10.27
2022-10-05T17:33:28.896Z,12.23
2022-10-05T17:36:12.872Z,14.32
2022-10-05T17:38:48.704Z,15.15
2022-10-05T17:41:23.454Z,13.20
2022-10-05T17:44:20.989Z,12.90
2022-10-05T17:47:00.681Z,10.00
2022-10-05T17:50:15.330Z,11.15
2022-10-05T17:53:02.686Z,9.38
2022-10-05T17:55:55.530Z,7.38
2022-10-05T17:58:28.515Z,12.10
2022-10-05T18:00:58.302Z,9.68
2022-10-05T18:03:43.434Z,7.30
2022-10-05T18:06:29.578Z,8.13
2022-10-05T18:09:16.956Z,8.60
2022-10-05T18:11:45.133Z,8.90
2022-10-05T18:14:24.609Z,11.77
2022-10-05T18:17:35.729Z,9.18
2022-10-05T18:20:18.244Z,9.60
2022-10-05T18:22:47.171Z,8.20
2022-10-05T18:25:29.449Z,10.90
2022-10-05T18:28:02.447Z,9.80
2022-10-05T18:30:38.721Z,9.60
2022-10-05T18:33:17.360Z,11.43
2022-10-05T18:35:46.905Z,11.02
2022-10-05T18:38:31.316Z,11.57
2022-10-05T18:41:21.270Z,16.48
2022-10-05T18:43:59.903Z,17.67
2022-10-05T18:47:02.302Z,15.77
2022-10-05T18:49:44.077Z,15.43
2022-10-05T18:52:51.881Z,11.05
2022-10-05T18:55:32.800Z,10.25
2022-10-05T18:58:26.030Z,8.68
2022-10-05T19:01:43.783Z,9.13
2022-10-05T19:04:24.557Z,11.82
2022-10-05T19:07:20.589Z,8.70
2022-10-05T19:09:58.536Z,8.10
2022-10-05T19:12:41.639Z,7.95
2022-10-05T19:15:30.567Z,9.52
2022-10-05T19:18:06.127Z,6.53
2022-10-05T19:20:46.965Z,7.55
2022-10-05T19:23:28.880Z,10.25
2022-10-05T19:26:08.850Z,12.20
2022-10-05T19:28:42.703Z,13.38
2022-10-05T19:31:12.246Z,16.98
2022-10-05T19:33:52.962Z,15.43
2022-10-05T19:36:47.081Z,15.68
2022-10-05T19:39:37.200Z,10.80
2022-10-05T19:44:39.082Z,9.80
2022-10-05T19:47:48.785Z,10.50
2022-10-05T19:50:28.555Z,12.57
2022-10-05T19:53:13.978Z,16.33
2022-10-05T19:55:43.709Z,9.65
2022-10-05T19:58:39.614Z,12.07
2022-10-05T20:01:06.914Z,10.68
2022-10-05T20:03:37.284Z,12.82
2022-10-05T20:06:08.992Z,11.57
2022-10-05T20:08:43.969Z,12.15
2022-10-05T20:11:15.950Z,12.13
2022-10-05T20:13:47.031Z,11.45
2022-10-05T20:16:34.930Z,11.10
2022-10-05T20:19:22.601Z,11.27
2022-10-05T20:21:59.688Z,8.32
2022-10-05T20:24:28.552Z,12.02
2022-10-05T20:27:09.504Z,7.70
2022-10-05T20:29:44.497Z,10.50
2022-10-05T20:32:13.246Z,9.85
2022-10-05T20:34:42.066Z,10.93
2022-10-05T20:37:11.437Z,9.98
2022-10-05T20:39:38.901Z,8.38
2022-10-05T20:42:05.934Z,10.10
2022-10-05T20:44:32.441Z,14.93
2022-10-05T20:47:01.222Z,16.45
2022-10-05T20:49:32.146Z,16.42
2022-10-05T20:51:58.858Z,11.45
2022-10-05T20:54:26.545Z,12.43
2022-10-05T20:56:55.796Z,8.95
2022-10-05T20:59:23.481Z,7.43
2022-10-05T21:01:50.253Z,7.20
2022-10-05T21:04:24.207Z,7.53
2022-10-05T21:06:51.015Z,8.23
2022-10-05T21:09:21.310Z,10.77
2022-10-05T21:11:50.089Z,8.68
2022-10-05T21:14:17.230Z,7.20
2022-10-05T21:16:45.785Z,7.93
2022-10-05T21:19:14.097Z,7.88
2022-10-05T21:21:42.639Z,11.60
2022-10-05T21:24:10.063Z,8.63
2022-10-05T21:26:37.500Z,11.52
2022-10-05T21:29:08.957Z,8.45
2022-10-05T21:31:37.756Z,10.43
2022-10-05T21:34:04.977Z,7.18
2022-10-05T21:36:32.521Z,7.70
2022-10-05T21:38:59.069Z,13.32
2022-10-05T21:41:25.574Z,7.82
2022-10-05T21:43:52.043Z,8.75
2022-10-05T21:46:21.919Z,9.73
2022-10-05T21:48:49.602Z,8.68
2022-10-05T21:51:18.905Z,14.32
2022-10-05T21:53:53.913Z,19.67
2022-10-05T21:56:23.355Z,28.02
2022-10-05T21:58:51.423Z,47.05
2022-10-05T22:01:22.370Z,50.88
2022-10-05T22:03:49.595Z,43.53
2022-10-05T22:06:16.165Z,45.13
2022-10-05T22:08:42.758Z,47.88
2022-10-05T22:11:15.498Z,44.45
2022-10-05T22:13:50.720Z,47.65
2022-10-05T22:16:19.979Z,43.88
2022-10-05T22:18:47.831Z,41.67
2022-10-05T22:21:14.714Z,35.63
2022-10-05T22:23:43.281Z,37.03
2022-10-05T22:26:12.503Z,35.72
2022-10-05T22:28:40.256Z,32.17
2022-10-05T22:31:09.515Z,30.02
2022-10-05T22:33:37.208Z,30.03
2022-10-05T22:36:05.448Z,24.38
2022-10-05T22:38:32.382Z,18.40
2022-10-05T22:40:58.958Z,21.52
2022-10-05T22:43:28.947Z,17.60
2022-10-05T22:45:56.097Z,13.13
2022-10-05T22:48:22.650Z,14.95
2022-10-05T22:50:49.380Z,11.52
2022-10-05T22:53:16.052Z,11.30
2022-10-05T22:55:42.654Z,18.17
2022-10-05T22:58:09.174Z,11.35
2022-10-05T23:00:57.169Z,12.02
2022-10-05T23:03:22.168Z,10.30
2022-10-05T23:05:56.247Z,10.20
2022-10-05T23:08:22.810Z,12.32
2022-10-05T23:10:49.254Z,13.02
2022-10-05T23:13:15.740Z,16.10
2022-10-05T23:15:42.484Z,16.13
2022-10-05T23:18:08.962Z,13.05
2022-10-05T23:20:35.518Z,9.93
2022-10-05T23:23:02.018Z,11.77
2022-10-05T23:25:28.546Z,7.55
2022-10-05T23:27:55.059Z,7.95
2022-10-05T23:30:21.602Z,7.72
2022-10-05T23:32:48.256Z,6.10
2022-10-05T23:35:14.911Z,6.35
2022-10-05T23:37:45.396Z,7.97
2022-10-05T23:40:13.814Z,6.32
2022-10-05T23:42:41.107Z,6.88
2022-10-05T23:45:11.654Z,6.53
2022-10-05T23:47:39.549Z,6.10
2022-10-05T23:50:07.839Z,10.65
2022-10-05T23:52:35.221Z,13.63
2022-10-05T23:55:05.809Z,15.80
2022-10-05T23:57:32.685Z,26.05
